Latest Weather Observations for Tibooburra Airport

IDN60801

Issued at 8:03 am EDT Tuesday 12 December 2017 (issued every 30 minutes, with the page automatically refreshed every 10 minutes)

About weather observations | Map of weather stations | Latest weather observations for NSW | Other Formats
Station Details ID: 046126 Name: TIBOOBURRA AIRPORT Lat: -29.44 Lon: 142.06 Height: 176.4 m
Data from the previous 72 hours. | See also: Recent months at Tibooburra Airport
Date/Time
EDT
Temp
°C
App
Temp
°C
Dew
Point
°C
Rel
Hum
%
Delta-T
°C
Wind Press
QNH
hPa
Press
MSL
hPa
Rain since
9am
mm
Dir  Spd
km/h
Gust
km/h
Spd
kts
Gust
kts
12/08:00am 28.9 24.2 0.6 16 13.7 SE 15 20 8 11 1014.5 1013.4 0.0
12/07:30am 27.3 23.0 0.9 18 12.7 SE 13 17 7 9 1014.1 1013.0 0.0
12/07:00am 25.9 22.3 0.5 19 12.0 S 9 13 5 7 1013.9 1012.8 0.0
12/06:30am 25.2 21.2 0.7 20 11.5 SSE 11 15 6 8 1013.7 1012.6 0.0
12/06:00am 25.3 22.1 0.8 20 11.6 S 7 11 4 6 1013.5 1012.4 0.0
12/05:30am 25.0 21.4 0.5 20 11.5 SSW 9 13 5 7 1013.4 1012.3 0.0
12/05:00am 26.2 21.7 0.0 18 12.3 SSE 13 17 7 9 1013.3 1012.2 0.0
12/04:30am 26.8 22.0 0.5 18 12.5 SE 15 20 8 11 1013.1 1012.0 0.0
12/04:00am 27.0 22.3 0.7 18 12.6 SE 15 20 8 11 1012.9 1011.8 0.0
12/03:30am 27.0 22.3 0.7 18 12.5 SE 15 20 8 11 1012.9 1011.8 0.0
12/03:00am 27.1 22.4 0.8 18 12.6 SSE 15 17 8 9 1013.0 1011.9 0.0
12/02:30am 28.0 22.9 0.7 17 13.1 SE 17 20 9 11 1013.3 1012.2 0.0
12/02:00am 28.3 23.2 0.9 17 13.2 SE 17 20 9 11 1013.7 1012.6 0.0
12/01:30am 28.9 23.9 1.4 17 13.5 SE 17 22 9 12 1014.1 1013.0 0.0
12/01:00am 29.4 24.3 1.0 16 13.8 SSE 17 24 9 13 1014.3 1013.2 0.0
12/12:30am 30.1 24.7 1.5 16 14.1 SSE 19 24 10 13 1014.3 1013.2 0.0
12/12:00am 30.4 24.9 0.9 15 14.5 SSE 19 24 10 13 1014.4 1013.3 0.0
 
Date/Time
EDT
Temp
°C
App
Temp
°C
Dew
Point
°C
Rel
Hum
%
Delta-T
°C
Wind Press
QNH
hPa
Press
MSL
hPa
Rain since
9am
mm
Dir  Spd
km/h
Gust
km/h
Spd
kts
Gust
kts
11/11:30pm 31.0 26.0 1.4 15 14.7 SSE 17 22 9 12 1014.4 1013.3 0.0
11/11:00pm 31.4 26.3 0.7 14 15.1 SSE 17 22 9 12 1014.1 1013.0 0.0
11/10:30pm 31.6 27.1 -0.1 13 15.4 SSE 13 15 7 8 1013.9 1012.8 0.0
11/10:00pm 32.4 28.0 0.5 13 15.7 SSE 13 17 7 9 1013.7 1012.6 0.0
11/09:30pm 33.4 28.2 0.1 12 16.4 SSE 17 20 9 11 1013.4 1012.3 0.0
11/09:00pm 34.0 28.7 -0.6 11 16.9 SSE 17 20 9 11 1013.3 1012.2 0.0
11/08:30pm 34.7 29.7 -1.4 10 17.5 S 15 19 8 10 1013.2 1012.1 0.0
11/08:00pm 35.6 29.7 -2.1 9 18.2 SSE 19 24 10 13 1012.9 1011.8 0.0
11/07:30pm 36.1 30.3 -1.7 9 18.4 S 19 26 10 14 1012.6 1011.5 0.0
11/07:00pm 36.9 30.6 -1.1 9 18.8 SE 22 32 12 17 1012.4 1011.3 0.0
11/06:30pm 37.0 30.7 -1.1 9 18.9 SSW 22 28 12 15 1012.2 1011.1 0.0
11/06:00pm 37.2 33.9 -0.9 9 19.0 S 6 20 3 11 1012.3 1011.2 0.0
11/05:30pm 37.2 32.4 -2.5 8 19.3 SSE 13 24 7 13 1012.4 1011.3 0.0
11/05:00pm 36.7 31.9 -2.9 8 19.0 S 13 22 7 12 1012.7 1011.6 0.0
11/04:30pm 36.9 33.4 -2.7 8 19.1 ESE 6 22 3 12 1013.0 1011.9 0.0
11/04:00pm 36.8 33.9 -1.2 9 18.8 E 4 9 2 5 1013.5 1012.4 0.0
11/03:30pm 37.3 32.7 -0.9 9 19.0 SSE 13 28 7 15 1013.8 1012.7 0.0
11/03:00pm 36.4 32.9 -1.5 9 18.6 E 7 17 4 9 1014.3 1013.2 0.0
11/02:30pm 36.5 31.9 -1.4 9 18.6 ENE 13 24 7 13 1014.7 1013.6 0.0
11/02:00pm 35.9 31.2 -1.9 9 18.3 S 13 24 7 13 1015.1 1014.0 0.0
11/01:30pm 35.8 32.6 0.8 11 17.7 NNW 7 13 4 7 1015.4 1014.3 0.0
11/01:00pm 34.7 30.8 1.1 12 17.0 ENE 11 20 6 11 1015.9 1014.9 0.0
11/12:30pm 35.2 31.4 1.5 12 17.2 E 11 26 6 14 1016.6 1015.5 0.0
11/12:00pm 34.0 30.6 1.7 13 16.4 SE 9 20 5 11 1016.8 1015.7 0.0
11/11:30am 33.3 29.6 2.2 14 15.9 NE 11 20 6 11 1017.1 1016.0 0.0
11/11:00am 32.5 28.1 2.5 15 15.3 ENE 15 24 8 13 1017.2 1016.1 0.0
11/10:30am 31.3 26.3 3.4 17 14.3 ESE 19 28 10 15 1017.4 1016.3 0.0
11/10:00am 29.8 24.5 2.9 18 13.6 SE 20 28 11 15 1017.8 1016.7 0.0
11/09:30am 28.4 22.4 3.3 20 12.7 SE 24 32 13 17 1017.8 1016.7 0.0
11/09:00am 27.8 21.5 3.5 21 12.2 SE 26 33 14 18 1018.1 1017.0 0.0
11/08:30am 27.0 20.7 3.5 22 11.8 SSE 26 37 14 20 1017.8 1016.7 0.0
11/08:00am 25.8 19.8 3.1 23 11.2 SSE 24 33 13 18 1017.6 1016.5 0.0
11/07:30am 25.0 20.0 3.6 25 10.6 SSE 19 24 10 13 1017.3 1016.2 0.0
11/07:00am 23.9 18.7 3.8 27 9.9 S 20 28 11 15 1017.1 1016.0 0.0
11/06:30am 23.4 18.3 3.9 28 9.6 S 20 24 11 13 1017.1 1016.0 0.0
11/06:00am 23.7 18.5 3.6 27 9.9 S 20 30 11 16 1016.8 1015.7 0.0
11/05:30am 23.6 18.4 3.5 27 9.9 S 20 28 11 15 1016.7 1015.6 0.0
11/05:00am 23.8 18.6 3.7 27 9.9 S 20 28 11 15 1016.6 1015.5 0.0
11/04:30am 23.9 18.9 3.8 27 9.9 S 19 26 10 14 1016.4 1015.3 0.0
11/04:00am 24.3 19.1 3.6 26 10.2 S 20 26 11 14 1016.3 1015.2 0.0
11/03:30am 24.9 19.3 3.5 25 10.6 S 22 28 12 15 1016.4 1015.3 0.0
11/03:00am 25.5 20.2 2.9 23 11.1 SSE 20 26 11 14 1016.6 1015.5 0.0
11/02:30am 26.2 20.6 3.5 23 11.3 SSE 22 30 12 16 1016.6 1015.5 0.0
11/02:00am 26.4 20.8 3.6 23 11.4 SSE 22 30 12 16 1017.0 1015.9 0.0
11/01:30am 26.8 21.2 3.3 22 11.7 SSE 22 30 12 16 1017.3 1016.2 0.0
11/01:00am 26.8 21.2 3.3 22 11.7 SSE 22 26 12 14 1017.5 1016.4 0.0
11/12:30am 26.9 21.6 2.1 20 12.1 SSE 19 26 10 14 1017.8 1016.7 0.0
11/12:00am 27.4 22.5 1.8 19 12.5 SSE 17 24 9 13 1017.9 1016.8 0.0
 
Date/Time
EDT
Temp
°C
App
Temp
°C
Dew
Point
°C
Rel
Hum
%
Delta-T
°C
Wind Press
QNH
hPa
Press
MSL
hPa
Rain since
9am
mm
Dir  Spd
km/h
Gust
km/h
Spd
kts
Gust
kts
10/11:30pm 27.7 22.7 1.2 18 12.8 SSE 17 20 9 11 1017.9 1016.8 0.0
10/11:00pm 28.4 23.1 1.8 18 13.0 SSE 19 22 10 12 1017.8 1016.7 0.0
10/10:30pm 28.6 23.9 1.2 17 13.3 SSE 15 19 8 10 1017.6 1016.5 0.0
10/10:00pm 29.1 24.4 0.7 16 13.7 SSE 15 19 8 10 1017.4 1016.3 0.0
10/09:30pm 29.7 24.6 -1.6 13 14.6 SE 15 17 8 9 1017.3 1016.2 0.0
10/09:00pm 30.8 24.9 -0.8 13 15.1 SSE 20 28 11 15 1017.1 1016.0 0.0
10/08:30pm 31.3 24.5 -1.5 12 15.5 SSE 24 33 13 18 1016.7 1015.6 0.0
10/08:00pm 32.1 24.9 -2.0 11 16.1 SSE 26 37 14 20 1016.3 1015.2 0.0
10/07:30pm 32.7 25.8 -2.9 10 16.6 SSE 24 39 13 21 1015.9 1014.9 0.0
10/07:00pm 33.2 26.2 -3.9 9 17.1 SE 24 39 13 21 1015.8 1014.8 0.0
10/06:30pm 33.4 26.4 -3.7 9 17.2 SE 24 39 13 21 1015.8 1014.8 0.0
10/06:00pm 33.4 26.0 -3.7 9 17.2 SSE 26 43 14 23 1015.8 1014.8 0.0
10/05:30pm 34.1 27.3 -4.8 8 17.8 SE 22 35 12 19 1015.8 1014.8 0.0
10/05:00pm 33.4 26.2 -5.3 8 17.4 SSE 24 33 13 18 1016.1 1015.1 0.0
10/04:30pm 33.3 26.5 -5.4 8 17.4 SE 22 39 12 21 1016.4 1015.3 0.0
10/04:00pm 33.9 27.1 -4.9 8 17.7 SSE 22 35 12 19 1016.8 1015.7 0.0
10/03:30pm 33.9 27.5 -4.9 8 17.7 SSE 20 33 11 18 1017.1 1016.0 0.0
10/03:00pm 32.9 27.2 -4.1 9 16.9 S 17 33 9 18 1017.5 1016.4 0.0
10/02:30pm 32.1 26.7 -4.7 9 16.6 SE 15 32 8 17 1017.9 1016.8 0.0
10/02:00pm 31.8 25.6 -4.9 9 16.4 S 19 41 10 22 1018.2 1017.1 0.0
10/01:30pm 31.9 25.1 -4.9 9 16.5 ESE 22 33 12 18 1018.7 1017.6 0.0
10/01:00pm 30.8 24.8 -3.0 11 15.5 SE 19 30 10 16 1019.1 1018.0 0.0
10/12:30pm 30.6 24.6 -3.2 11 15.5 SE 19 32 10 17 1019.6 1018.5 0.0
10/12:00pm 30.3 24.4 -2.2 12 15.1 E 19 30 10 16 1019.9 1018.8 0.0
10/11:30am 29.8 23.7 -2.6 12 14.9 ESE 20 30 11 16 1020.2 1019.1 0.0
10/11:00am 29.2 22.8 -2.0 13 14.4 ESE 22 28 12 15 1020.5 1019.4 0.0
10/10:30am 29.0 22.3 -1.2 14 14.1 E 24 35 13 19 1020.8 1019.8 0.0
10/10:00am 27.3 19.5 -0.7 16 13.0 ESE 30 39 16 21 1020.8 1019.8 0.0
10/09:30am 26.8 19.5 -0.3 17 12.7 ESE 28 39 15 21 1020.8 1019.8 0.0
10/09:00am 24.8 17.6 1.0 21 11.2 ESE 28 33 15 18 1020.7 1019.6 0.0
10/08:30am 24.2 16.7 1.2 22 10.8 ESE 30 35 16 19 1020.7 1019.6 0.0
10/08:00am 23.3 16.9 1.0 23 10.4 SE 24 33 13 18 1020.3 1019.2 0.0
10/07:30am 21.7 16.3 1.4 26 9.4 SE 19 26 10 14 1020.1 1019.0 0.0
10/07:00am 20.6 15.6 1.5 28 8.8 SE 17 20 9 11 1019.8 1018.7 0.0
10/06:30am 20.4 15.0 1.3 28 8.8 SE 19 26 10 14 1019.4 1018.3 0.0
10/06:00am 20.8 15.2 1.1 27 9.0 SE 20 26 11 14 1019.1 1018.0 0.0
10/05:30am 21.2 15.6 1.5 27 9.1 SE 20 30 11 16 1018.8 1017.7 0.0
10/05:00am 21.3 15.7 1.0 26 9.3 SE 20 28 11 15 1018.5 1017.4 0.0
10/04:30am 21.6 14.8 0.8 25 9.5 SE 26 33 14 18 1018.2 1017.1 0.0
10/04:00am 22.0 15.9 0.5 24 9.8 SE 22 32 12 17 1018.1 1017.0 0.0
10/03:30am 21.9 16.2 0.4 24 9.8 SSE 20 28 11 15 1018.2 1017.1 0.0
10/03:00am 22.1 16.3 0.0 23 10.0 SSE 20 26 11 14 1018.3 1017.2 0.0
10/02:30am 22.4 16.6 -0.3 22 10.3 SSE 20 26 11 14 1018.5 1017.4 0.0
10/02:00am 22.5 16.9 -0.3 22 10.3 SSE 19 28 10 15 1018.7 1017.6 0.0
10/01:30am 22.7 16.9 -1.4 20 10.7 SSE 19 24 10 13 1018.7 1017.6 0.0
10/01:00am 22.9 17.0 -1.9 19 10.9 SSE 19 24 10 13 1019.0 1017.9 0.0
10/12:30am 23.3 17.8 -2.3 18 11.2 SSE 17 22 9 12 1019.1 1018.0 0.0
10/12:00am 23.8 17.8 -2.7 17 11.5 SSE 19 24 10 13 1019.3 1018.2 0.0
 
Date/Time
EDT
Temp
°C
App
Temp
°C
Dew
Point
°C
Rel
Hum
%
Delta-T
°C
Wind Press
QNH
hPa
Press
MSL
hPa
Rain since
9am
mm
Dir  Spd
km/h
Gust
km/h
Spd
kts
Gust
kts
09/11:30pm 24.2 18.6 -3.2 16 11.9 SSE 17 22 9 12 1019.4 1018.3 0.0
09/11:00pm 24.6 18.9 -3.7 15 12.2 SSE 17 24 9 13 1019.3 1018.2 0.0
09/10:30pm 25.1 19.5 -3.3 15 12.4 SSE 17 20 9 11 1019.1 1018.0 0.0
09/10:00pm 25.8 19.7 -3.7 14 12.8 SSE 19 24 10 13 1018.7 1017.6 0.0
09/09:30pm 26.6 20.5 -4.0 13 13.4 SSE 19 24 10 13 1018.5 1017.4 0.0
09/09:00pm 27.4 20.7 -4.5 12 13.9 SSE 22 32 12 17 1018.3 1017.2 0.0
09/08:30pm 28.0 20.8 -5.2 11 14.4 SSE 24 35 13 19 1018.0 1016.9 0.0
09/08:00pm 28.8 20.8 -5.8 10 14.9 SSE 28 39 15 21 1017.8 1016.7 0.0
09/07:30pm 29.5 21.8 -6.7 9 15.4 SE 26 35 14 19 1017.4 1016.3 0.0
09/07:00pm 30.1 22.1 -6.2 9 15.7 SSE 28 37 15 20 1017.2 1016.1 0.0
09/06:30pm 30.1 21.9 -7.7 8 15.9 SSE 28 35 15 19 1017.0 1015.9 0.0
09/06:00pm 30.4 22.6 -7.5 8 16.0 SSE 26 43 14 23 1017.0 1015.9 0.0
09/05:30pm 30.2 22.0 -7.7 8 16.0 SE 28 37 15 20 1017.1 1016.0 0.0
09/05:00pm 30.7 22.9 -7.3 8 16.2 SSE 26 39 14 21 1017.3 1016.2 0.0
09/04:50pm 30.7 22.7 -5.8 9 16.0 SSE 28 46 15 25 1017.5 1016.4 0.0
09/04:30pm 30.4 22.2 -7.5 8 16.1 SSE 28 39 15 21 1017.7 1016.6 0.0
09/04:00pm 30.3 22.1 -7.6 8 16.0 SSE 28 41 15 22 1018.0 1016.9 0.0
09/03:30pm 29.5 21.8 -6.7 9 15.4 SSE 26 39 14 21 1018.3 1017.2 0.0
09/03:00pm 29.1 21.7 -7.0 9 15.2 SSE 24 39 13 21 1018.6 1017.5 0.0
09/02:30pm 29.2 21.5 -6.9 9 15.3 SE 26 37 14 20 1018.9 1017.8 0.0
09/02:00pm 28.6 21.6 -7.3 9 15.0 SE 22 37 12 20 1019.2 1018.1 0.0
09/01:30pm 27.7 20.6 -8.0 9 14.6 SSE 22 33 12 18 1019.7 1018.6 0.0
09/01:00pm 27.9 20.6 -6.5 10 14.5 SE 24 35 13 19 1020.0 1018.9 0.0
09/12:30pm 27.4 20.0 -6.9 10 14.3 SE 24 35 13 19 1020.3 1019.2 0.0
09/12:00pm 25.9 18.4 -4.6 13 13.1 SE 26 37 14 20 1020.5 1019.4 0.0
09/11:30am 25.1 17.6 -4.2 14 12.6 SE 26 33 14 18 1020.8 1019.8 0.0
09/11:00am 24.7 16.9 -3.6 15 12.2 SE 28 35 15 19 1021.0 1020.0 0.0
09/10:30am 24.0 16.4 -2.5 17 11.6 SE 28 35 15 19 1020.9 1019.9 0.0
09/10:00am 23.2 15.3 -1.7 19 11.0 SE 30 39 16 21 1021.1 1020.1 0.0
09/09:30am 22.2 13.4 -1.1 21 10.4 SE 35 46 19 25 1021.2 1020.2 0.0
09/09:00am 21.7 14.4 -0.3 23 9.9 ESE 28 35 15 19 1021.1 1020.1 0.0
09/08:30am 20.7 13.8 0.0 25 9.3 SE 26 33 14 18 1020.7 1019.6 0.0

Other Formats:

Comma delimited format used in spreadsheet applications
http://www.bom.gov.au/fwo/IDN60801/IDN60801.95485.axf

JavaScript Object Notation format (JSON) in row-major order
http://www.bom.gov.au/fwo/IDN60801/IDN60801.95485.json